createdAt,value
2022-10-25T00:00:04.917Z,12.97
2022-10-25T00:01:04.971Z,12.97
2022-10-25T00:02:05.003Z,12.97
2022-10-25T00:03:04.895Z,12.96
2022-10-25T00:04:04.878Z,12.95
2022-10-25T00:05:04.864Z,12.93
2022-10-25T00:06:04.832Z,12.92
2022-10-25T00:07:04.818Z,12.92
2022-10-25T00:08:04.849Z,12.88
2022-10-25T00:09:04.830Z,12.87
2022-10-25T00:10:04.790Z,12.85
2022-10-25T00:11:04.784Z,12.85
2022-10-25T00:12:04.770Z,12.82
2022-10-25T00:13:04.778Z,12.81
2022-10-25T00:14:04.848Z,12.79
2022-10-25T00:15:04.739Z,12.78
2022-10-25T00:16:04.751Z,12.78
2022-10-25T00:17:04.702Z,12.75
2022-10-25T00:18:04.700Z,12.74
2022-10-25T00:19:04.694Z,12.71
2022-10-25T00:20:04.693Z,12.67
2022-10-25T00:21:04.671Z,12.67
2022-10-25T00:22:04.653Z,12.67
2022-10-25T00:23:04.650Z,12.70
2022-10-25T00:24:04.642Z,12.70
2022-10-25T00:25:04.653Z,12.71
2022-10-25T00:26:04.612Z,12.69
2022-10-25T00:27:04.603Z,12.64
2022-10-25T00:28:04.583Z,12.63
2022-10-25T00:29:04.569Z,12.62
2022-10-25T00:30:04.596Z,12.57
2022-10-25T00:31:04.575Z,12.57
2022-10-25T00:32:04.533Z,12.54
2022-10-25T00:33:04.514Z,12.52
2022-10-25T00:34:04.507Z,12.49
2022-10-25T00:35:04.498Z,12.46
2022-10-25T00:36:04.541Z,12.44
2022-10-25T00:37:04.479Z,12.42
2022-10-25T00:38:04.486Z,12.42
2022-10-25T00:39:04.462Z,12.44
2022-10-25T00:40:04.469Z,12.51
2022-10-25T00:41:04.424Z,12.54
2022-10-25T00:42:04.498Z,12.54
2022-10-25T00:43:04.428Z,12.59
2022-10-25T00:44:04.406Z,12.60
2022-10-25T00:45:04.413Z,12.60
2022-10-25T00:46:04.390Z,12.60
2022-10-25T00:47:04.411Z,12.60
2022-10-25T00:48:04.345Z,12.60
2022-10-25T00:49:04.348Z,12.60
2022-10-25T00:50:04.327Z,12.60
2022-10-25T00:51:04.322Z,12.60
2022-10-25T00:52:04.297Z,12.62
2022-10-25T00:53:04.323Z,12.62
2022-10-25T00:54:04.315Z,12.62
2022-10-25T00:55:04.264Z,12.60
2022-10-25T00:56:04.277Z,12.62
2022-10-25T00:57:04.297Z,12.60
2022-10-25T00:58:04.298Z,12.59
2022-10-25T00:59:04.271Z,12.60
2022-10-25T01:00:04.230Z,12.59
2022-10-25T01:01:04.229Z,12.60
2022-10-25T01:02:04.315Z,12.62
2022-10-25T01:03:04.182Z,12.62
2022-10-25T01:04:04.170Z,12.60
2022-10-25T01:05:04.140Z,12.62
2022-10-25T01:06:04.252Z,12.63
2022-10-25T01:07:04.119Z,12.64
2022-10-25T01:08:04.110Z,12.60
2022-10-25T01:09:04.104Z,12.60
2022-10-25T01:10:04.103Z,12.57
2022-10-25T01:11:04.125Z,12.60
2022-10-25T01:12:04.053Z,12.59
2022-10-25T01:13:04.049Z,12.57
2022-10-25T01:14:04.040Z,12.56
2022-10-25T01:15:04.020Z,12.52
2022-10-25T01:16:04.070Z,12.51
2022-10-25T01:17:04.011Z,12.49
2022-10-25T01:18:03.992Z,12.45
2022-10-25T01:19:03.970Z,12.44
2022-10-25T01:20:03.989Z,12.45
2022-10-25T01:21:03.962Z,12.45
2022-10-25T01:22:03.973Z,12.45
2022-10-25T01:23:03.962Z,12.44
2022-10-25T01:24:03.933Z,12.45
2022-10-25T01:25:03.924Z,12.41
2022-10-25T01:26:03.903Z,12.38
2022-10-25T01:27:03.912Z,12.39
2022-10-25T01:28:05.143Z,12.37
2022-10-25T01:29:03.887Z,12.34
2022-10-25T01:30:03.853Z,12.33
2022-10-25T01:31:03.842Z,12.31
2022-10-25T01:32:03.824Z,12.31
2022-10-25T01:33:03.812Z,12.30
2022-10-25T01:34:03.828Z,12.27
2022-10-25T01:35:03.807Z,12.26
2022-10-25T01:36:03.824Z,12.23
2022-10-25T01:37:03.773Z,12.24
2022-10-25T01:38:03.790Z,12.21
2022-10-25T01:39:03.772Z,12.21
2022-10-25T01:40:03.840Z,12.21
2022-10-25T01:41:03.725Z,12.19
2022-10-25T01:42:03.734Z,12.16
2022-10-25T01:43:03.713Z,12.16
2022-10-25T01:44:03.706Z,12.19
2022-10-25T01:45:03.681Z,12.16
2022-10-25T01:46:03.697Z,12.15
2022-10-25T01:47:03.720Z,12.15
2022-10-25T01:48:03.657Z,12.15
2022-10-25T01:49:03.638Z,12.15
2022-10-25T01:50:03.628Z,12.12
2022-10-25T01:51:03.674Z,12.12
2022-10-25T01:52:03.609Z,12.12
2022-10-25T01:53:03.596Z,12.13
2022-10-25T01:54:03.600Z,12.16
2022-10-25T01:55:03.568Z,12.19
2022-10-25T01:56:03.573Z,12.19
2022-10-25T01:57:03.600Z,12.20
2022-10-25T01:58:03.567Z,12.19
2022-10-25T01:59:03.519Z,12.21
2022-10-25T02:00:03.510Z,12.23
2022-10-25T02:01:03.637Z,12.23
2022-10-25T02:02:03.522Z,12.24
2022-10-25T02:03:03.528Z,12.26
2022-10-25T02:04:03.460Z,12.27
2022-10-25T02:05:03.458Z,12.26
2022-10-25T02:06:03.429Z,12.24
2022-10-25T02:07:03.428Z,12.23
2022-10-25T02:08:03.437Z,12.24
2022-10-25T02:09:03.399Z,12.23
2022-10-25T02:10:03.471Z,12.24
2022-10-25T02:11:03.391Z,12.23
2022-10-25T02:12:03.360Z,12.24
2022-10-25T02:13:03.360Z,12.24
2022-10-25T02:14:03.394Z,12.23
2022-10-25T02:15:03.331Z,12.21
2022-10-25T02:16:03.323Z,12.21
2022-10-25T02:17:03.336Z,12.21
2022-10-25T02:18:03.291Z,12.21
2022-10-25T02:19:03.292Z,12.21
2022-10-25T02:20:03.316Z,12.23
2022-10-25T02:21:03.272Z,12.19
2022-10-25T02:22:03.251Z,12.16
2022-10-25T02:23:03.242Z,12.15
2022-10-25T02:24:03.253Z,12.13
2022-10-25T02:25:03.256Z,12.13
2022-10-25T02:26:03.293Z,12.15
2022-10-25T02:27:03.193Z,12.13
2022-10-25T02:28:03.203Z,12.11
2022-10-25T02:29:03.166Z,12.08
2022-10-25T02:30:03.173Z,12.04
2022-10-25T02:31:03.203Z,12.05
2022-10-25T02:32:03.186Z,12.05
2022-10-25T02:33:03.154Z,12.08
2022-10-25T02:34:03.128Z,12.06
2022-10-25T02:35:03.190Z,12.06
2022-10-25T02:36:03.124Z,12.02
2022-10-25T02:37:03.074Z,12.02
2022-10-25T02:38:03.085Z,12.02
2022-10-25T02:39:03.075Z,12.01
2022-10-25T02:40:03.045Z,11.99
2022-10-25T02:41:03.036Z,11.99
2022-10-25T02:42:03.019Z,12.01
2022-10-25T02:43:03.041Z,12.01
2022-10-25T02:44:03.010Z,12.01
2022-10-25T02:45:02.992Z,11.99
2022-10-25T02:46:02.965Z,11.96
2022-10-25T02:47:02.964Z,11.97
2022-10-25T02:48:02.973Z,11.97
2022-10-25T02:49:02.965Z,11.99
2022-10-25T02:50:02.941Z,11.99
2022-10-25T02:51:02.937Z,11.96
2022-10-25T02:52:02.899Z,11.97
2022-10-25T02:53:02.898Z,11.96
2022-10-25T02:54:02.890Z,11.96
2022-10-25T02:55:02.929Z,11.99
2022-10-25T02:56:02.856Z,11.97
2022-10-25T02:57:02.870Z,11.96
2022-10-25T02:58:02.832Z,11.94
2022-10-25T02:59:02.820Z,11.96
2022-10-25T03:00:02.928Z,11.94
2022-10-25T03:01:02.891Z,11.93
2022-10-25T03:02:02.829Z,11.93
2022-10-25T03:03:02.779Z,11.90
2022-10-25T03:04:02.769Z,11.94
2022-10-25T03:05:02.769Z,11.90
2022-10-25T03:06:02.787Z,11.87
2022-10-25T03:07:02.736Z,11.87
2022-10-25T03:08:02.760Z,11.89
2022-10-25T03:09:02.713Z,11.90
2022-10-25T03:10:02.710Z,11.90
2022-10-25T03:11:02.692Z,11.87
2022-10-25T03:12:02.707Z,11.89
2022-10-25T03:13:02.667Z,11.89
2022-10-25T03:14:02.675Z,11.89
2022-10-25T03:15:02.651Z,11.89
2022-10-25T03:16:02.635Z,11.89
2022-10-25T03:17:02.623Z,11.89
2022-10-25T03:18:02.663Z,11.90
2022-10-25T03:19:02.593Z,11.87
2022-10-25T03:20:02.593Z,11.89
2022-10-25T03:21:02.575Z,11.86
2022-10-25T03:22:02.580Z,11.83
2022-10-25T03:23:02.585Z,11.80
2022-10-25T03:24:02.537Z,11.82
2022-10-25T03:25:02.592Z,11.83
2022-10-25T03:26:02.524Z,11.85
2022-10-25T03:27:02.512Z,11.90
2022-10-25T03:28:02.486Z,11.89
2022-10-25T03:29:02.496Z,11.90
2022-10-25T03:30:02.525Z,11.89
2022-10-25T03:31:02.463Z,11.87
2022-10-25T03:32:02.467Z,11.87
2022-10-25T03:33:02.483Z,11.87
2022-10-25T03:34:02.470Z,11.89
2022-10-25T03:35:02.492Z,11.87
2022-10-25T03:36:02.422Z,11.85
2022-10-25T03:37:02.388Z,11.83
2022-10-25T03:38:02.384Z,11.85
2022-10-25T03:39:02.346Z,11.82
2022-10-25T03:40:02.363Z,11.85
2022-10-25T03:41:02.375Z,11.86
2022-10-25T03:42:02.338Z,11.83
2022-10-25T03:43:02.324Z,11.83
2022-10-25T03:44:02.337Z,11.82
2022-10-25T03:45:02.277Z,11.83
2022-10-25T03:46:02.295Z,11.85
2022-10-25T03:47:02.256Z,11.82
2022-10-25T03:48:02.267Z,11.80
2022-10-25T03:49:02.254Z,11.77
2022-10-25T03:50:02.226Z,11.77
2022-10-25T03:51:02.209Z,11.78
2022-10-25T03:52:04.885Z,11.77
2022-10-25T03:53:02.282Z,11.77
2022-10-25T03:54:02.198Z,11.77
2022-10-25T03:55:02.208Z,11.74
2022-10-25T03:56:02.174Z,11.78
2022-10-25T03:57:02.168Z,11.74
2022-10-25T03:58:02.178Z,11.74
2022-10-25T03:59:02.132Z,11.72
2022-10-25T04:00:02.118Z,11.74
2022-10-25T04:01:02.165Z,11.75
2022-10-25T04:02:02.194Z,11.75
2022-10-25T04:03:02.441Z,11.74
2022-10-25T04:04:02.106Z,11.71
2022-10-25T04:05:02.063Z,11.71
2022-10-25T04:06:02.052Z,11.68
2022-10-25T04:07:02.055Z,11.68
2022-10-25T04:08:02.026Z,11.68
2022-10-25T04:09:02.041Z,11.68
2022-10-25T04:10:01.990Z,11.67
2022-10-25T04:11:02.000Z,11.65
2022-10-25T04:12:01.970Z,11.68
2022-10-25T04:13:01.976Z,11.68
2022-10-25T04:14:01.961Z,11.68
2022-10-25T04:15:01.973Z,11.67
2022-10-25T04:16:01.949Z,11.67
2022-10-25T04:17:01.915Z,11.70
2022-10-25T04:18:01.910Z,11.70
2022-10-25T04:19:01.895Z,11.68
2022-10-25T04:20:01.891Z,11.70
2022-10-25T04:21:01.903Z,11.75
2022-10-25T04:22:01.871Z,11.75
2022-10-25T04:23:01.851Z,11.75
2022-10-25T04:24:04.244Z,11.74
2022-10-25T04:25:01.825Z,11.74
2022-10-25T04:26:01.857Z,11.71
2022-10-25T04:27:01.827Z,11.71
2022-10-25T04:28:01.811Z,11.70
2022-10-25T04:29:01.774Z,11.71
2022-10-25T04:30:01.798Z,11.70
2022-10-25T04:31:01.794Z,11.68
2022-10-25T04:32:01.795Z,11.68
2022-10-25T04:33:01.747Z,11.68
2022-10-25T04:34:01.733Z,11.67
2022-10-25T04:35:01.750Z,11.64
2022-10-25T04:36:01.695Z,11.62
2022-10-25T04:37:01.852Z,11.62
2022-10-25T04:38:01.721Z,11.62
2022-10-25T04:39:01.739Z,11.62
2022-10-25T04:40:01.646Z,11.61
2022-10-25T04:41:01.646Z,11.61
2022-10-25T04:42:01.748Z,11.62
2022-10-25T04:43:01.635Z,11.61
2022-10-25T04:44:01.634Z,11.61
2022-10-25T04:45:01.627Z,11.61
2022-10-25T04:46:01.581Z,11.57
2022-10-25T04:47:01.567Z,11.57
2022-10-25T04:48:01.559Z,11.56
2022-10-25T04:49:01.558Z,11.54
2022-10-25T04:50:01.662Z,11.53
2022-10-25T04:51:01.544Z,11.53
2022-10-25T04:52:01.561Z,11.53
2022-10-25T04:53:01.517Z,11.53
2022-10-25T04:54:01.498Z,11.52
2022-10-25T04:55:01.478Z,11.49
2022-10-25T04:56:01.498Z,11.47
2022-10-25T04:57:01.478Z,11.49
2022-10-25T04:58:01.449Z,11.50
2022-10-25T04:59:01.458Z,11.50
2022-10-25T05:00:01.498Z,11.50
2022-10-25T05:01:01.540Z,11.49
2022-10-25T05:02:01.429Z,11.47
2022-10-25T05:03:01.842Z,11.46
2022-10-25T05:04:01.385Z,11.44
2022-10-25T05:05:01.399Z,11.44
2022-10-25T05:06:01.360Z,11.43
2022-10-25T05:07:01.341Z,11.41
2022-10-25T05:08:01.388Z,11.39
2022-10-25T05:09:01.363Z,11.39
2022-10-25T05:10:01.313Z,11.38
2022-10-25T05:11:01.336Z,11.36
2022-10-25T05:12:01.281Z,11.36
2022-10-25T05:13:01.304Z,11.32
2022-10-25T05:14:01.294Z,11.31
2022-10-25T05:15:01.255Z,11.31
2022-10-25T05:16:01.242Z,11.29
2022-10-25T05:17:01.240Z,11.31
2022-10-25T05:18:01.268Z,11.31
2022-10-25T05:19:01.203Z,11.32
2022-10-25T05:20:01.224Z,11.34
2022-10-25T05:21:01.182Z,11.31
2022-10-25T05:22:01.193Z,11.34
2022-10-25T05:23:01.172Z,11.35
2022-10-25T05:24:01.996Z,11.32
2022-10-25T05:25:01.180Z,11.32
2022-10-25T05:26:01.162Z,11.31
2022-10-25T05:27:01.102Z,11.27
2022-10-25T05:28:01.103Z,11.27
2022-10-25T05:29:01.110Z,11.27
2022-10-25T05:30:01.076Z,11.21
2022-10-25T05:31:01.122Z,11.21
2022-10-25T05:32:01.074Z,11.21
2022-10-25T05:33:04.062Z,11.16
2022-10-25T05:34:01.028Z,11.14
2022-10-25T05:35:01.036Z,11.14
2022-10-25T05:36:01.009Z,11.11
2022-10-25T05:37:01.016Z,11.10
2022-10-25T05:38:00.994Z,11.09
2022-10-25T05:39:01.033Z,11.09
2022-10-25T05:40:00.969Z,11.10
2022-10-25T05:41:01.029Z,11.10
2022-10-25T05:42:00.950Z,11.10
2022-10-25T05:43:00.956Z,11.07
2022-10-25T05:44:00.961Z,11.07
2022-10-25T05:45:00.898Z,11.07
2022-10-25T05:46:00.889Z,11.07
2022-10-25T05:47:00.877Z,11.02
2022-10-25T05:48:00.856Z,11.07
2022-10-25T05:49:00.887Z,11.06
2022-10-25T05:50:00.852Z,11.03
2022-10-25T05:51:14.246Z,11.02
2022-10-25T05:52:01.916Z,11.07
2022-10-25T05:53:00.819Z,11.07
2022-10-25T05:54:00.808Z,11.09
2022-10-25T05:55:00.846Z,11.07
2022-10-25T05:56:00.834Z,11.11
2022-10-25T05:57:01.691Z,11.11
2022-10-25T05:58:00.760Z,11.13
2022-10-25T05:59:00.732Z,11.16
2022-10-25T06:00:00.738Z,11.16
2022-10-25T06:01:00.857Z,11.16
2022-10-25T06:02:00.822Z,11.17
2022-10-25T06:03:00.699Z,11.16
2022-10-25T06:04:00.748Z,11.19
2022-10-25T06:05:00.660Z,11.19
2022-10-25T06:06:00.676Z,11.20
2022-10-25T06:07:00.669Z,11.20
2022-10-25T06:08:00.681Z,11.24
2022-10-25T06:09:00.619Z,11.24
2022-10-25T06:10:00.709Z,11.21
2022-10-25T06:11:00.599Z,11.20
2022-10-25T06:12:01.155Z,11.19
2022-10-25T06:13:00.595Z,11.20
2022-10-25T06:14:00.563Z,11.20
2022-10-25T06:15:00.580Z,11.16
2022-10-25T06:16:00.532Z,11.19
2022-10-25T06:17:00.524Z,11.19
2022-10-25T06:18:00.542Z,11.21
2022-10-25T06:19:00.501Z,11.21
2022-10-25T06:20:00.551Z,11.24
2022-10-25T06:21:00.494Z,11.27
2022-10-25T06:22:00.471Z,11.25
2022-10-25T06:23:00.464Z,11.27
2022-10-25T06:24:00.483Z,11.28
2022-10-25T06:25:00.431Z,11.27
2022-10-25T06:26:00.422Z,11.27
2022-10-25T06:27:00.412Z,11.25
2022-10-25T06:28:00.416Z,11.25
2022-10-25T06:29:00.390Z,11.25
2022-10-25T06:30:00.423Z,11.25
2022-10-25T06:31:00.375Z,11.29
2022-10-25T06:32:00.363Z,11.29
2022-10-25T06:33:00.461Z,11.32
2022-10-25T06:34:00.325Z,11.35
2022-10-25T06:35:00.319Z,11.35
2022-10-25T06:36:00.338Z,11.36
2022-10-25T06:37:00.312Z,11.38
2022-10-25T06:38:00.285Z,11.39
2022-10-25T06:39:05.352Z,11.39
2022-10-25T06:40:01.270Z,11.41
2022-10-25T06:41:00.287Z,11.44
2022-10-25T06:42:00.266Z,11.46
2022-10-25T06:43:00.236Z,11.49
2022-10-25T06:44:05.305Z,11.49
2022-10-25T06:45:01.202Z,11.50
2022-10-25T06:46:00.217Z,11.52
2022-10-25T06:47:17.959Z,11.54
2022-10-25T06:48:01.198Z,11.56
2022-10-25T06:49:00.190Z,11.57
2022-10-25T06:50:00.234Z,11.57
2022-10-25T06:51:00.199Z,11.61
2022-10-25T06:52:00.150Z,11.62
2022-10-25T06:53:00.107Z,11.64
2022-10-25T06:54:00.106Z,11.64
2022-10-25T06:55:00.086Z,11.65
2022-10-25T06:56:04.401Z,11.68
2022-10-25T06:57:01.115Z,11.71
2022-10-25T06:58:00.078Z,11.71
2022-10-25T06:59:00.104Z,11.72
2022-10-25T07:01:00.121Z,11.75
2022-10-25T07:02:00.131Z,11.78
2022-10-25T07:02:59.989Z,11.80
2022-10-25T07:04:00.009Z,11.80
2022-10-25T07:05:00.004Z,11.82
2022-10-25T07:05:59.960Z,11.82
2022-10-25T07:06:59.951Z,11.85
2022-10-25T07:07:59.952Z,11.85
2022-10-25T07:08:59.931Z,11.86
2022-10-25T07:09:59.986Z,11.89
2022-10-25T07:10:59.905Z,11.90
2022-10-25T07:11:59.882Z,11.93
2022-10-25T07:12:59.964Z,11.93
2022-10-25T07:13:59.898Z,11.96
2022-10-25T07:14:59.852Z,12.02
2022-10-25T07:15:59.901Z,12.02
2022-10-25T07:16:59.838Z,12.04
2022-10-25T07:17:59.825Z,12.05
2022-10-25T07:18:59.812Z,12.05
2022-10-25T07:19:59.802Z,12.05
2022-10-25T07:20:59.857Z,12.09
2022-10-25T07:21:59.815Z,12.12
2022-10-25T07:23:00.638Z,12.15
2022-10-25T07:23:59.753Z,12.19
2022-10-25T07:24:59.752Z,12.20
2022-10-25T07:25:59.723Z,12.21
2022-10-25T07:26:59.745Z,12.23
2022-10-25T07:27:59.705Z,12.23
2022-10-25T07:28:59.741Z,12.23
2022-10-25T07:29:59.674Z,12.23
2022-10-25T07:30:59.705Z,12.23
2022-10-25T07:31:59.645Z,12.21
2022-10-25T07:32:59.665Z,12.23
2022-10-25T07:33:59.702Z,12.24
2022-10-25T07:34:59.640Z,12.23
2022-10-25T07:36:09.849Z,12.23
2022-10-25T07:37:00.604Z,12.24
2022-10-25T07:37:59.580Z,12.24
2022-10-25T07:38:59.596Z,12.26
2022-10-25T07:39:59.570Z,12.29
2022-10-25T07:40:59.580Z,12.31
2022-10-25T07:41:59.571Z,12.30
2022-10-25T07:42:59.527Z,12.31
2022-10-25T07:43:59.505Z,12.33
2022-10-25T07:44:59.526Z,12.34
2022-10-25T07:45:59.496Z,12.33
2022-10-25T07:46:59.504Z,12.37
2022-10-25T07:47:59.458Z,12.33
2022-10-25T07:48:59.465Z,12.31
2022-10-25T07:49:59.446Z,12.33
2022-10-25T07:50:59.460Z,12.31
2022-10-25T07:51:59.487Z,12.30
2022-10-25T07:52:59.407Z,12.29
2022-10-25T07:53:59.393Z,12.27
2022-10-25T07:54:59.392Z,12.26
2022-10-25T07:55:59.370Z,12.26
2022-10-25T07:56:59.399Z,12.24
2022-10-25T07:57:59.351Z,12.26
2022-10-25T07:58:59.339Z,12.26
2022-10-25T07:59:59.390Z,12.27
2022-10-25T08:00:59.326Z,12.31
2022-10-25T08:01:59.372Z,12.37
2022-10-25T08:02:59.371Z,12.41
2022-10-25T08:03:59.311Z,12.44
2022-10-25T08:04:59.271Z,12.54
2022-10-25T08:05:59.279Z,12.57
2022-10-25T08:06:59.252Z,12.71
2022-10-25T08:07:59.261Z,12.79
2022-10-25T08:09:05.452Z,12.87
2022-10-25T08:10:00.223Z,12.96
2022-10-25T08:10:59.196Z,13.03
2022-10-25T08:11:59.191Z,13.14
2022-10-25T08:12:59.191Z,13.21
2022-10-25T08:13:59.193Z,13.32
2022-10-25T08:14:59.162Z,13.41
2022-10-25T08:15:59.203Z,13.43
2022-10-25T08:16:59.127Z,13.52
2022-10-25T08:17:59.113Z,13.62
2022-10-25T08:18:59.106Z,13.65
2022-10-25T08:19:59.213Z,13.73
2022-10-25T08:21:02.826Z,13.77
2022-10-25T08:21:59.075Z,13.79
2022-10-25T08:22:59.067Z,13.80
2022-10-25T08:23:59.115Z,13.74
2022-10-25T08:24:59.065Z,13.81
2022-10-25T08:25:59.035Z,13.79
2022-10-25T08:26:59.043Z,13.88
2022-10-25T08:27:59.005Z,13.94
2022-10-25T08:28:58.984Z,13.98
2022-10-25T08:29:58.981Z,13.91
2022-10-25T08:30:58.998Z,13.92
2022-10-25T08:31:58.956Z,13.88
2022-10-25T08:32:58.957Z,13.94
2022-10-25T08:33:59.056Z,13.88
2022-10-25T08:34:58.925Z,13.83
2022-10-25T08:35:58.932Z,13.92
2022-10-25T08:36:58.937Z,14.06
2022-10-25T08:37:58.886Z,14.04
2022-10-25T08:38:58.878Z,14.04
2022-10-25T08:39:58.858Z,14.09
2022-10-25T08:40:58.934Z,14.14
2022-10-25T08:41:58.841Z,14.17
2022-10-25T08:42:58.858Z,14.25
2022-10-25T08:44:58.819Z,14.39
2022-10-25T08:45:58.798Z,14.37
2022-10-25T08:46:58.919Z,14.31
2022-10-25T08:47:58.805Z,14.32
2022-10-25T08:48:58.798Z,14.29
2022-10-25T08:49:58.753Z,14.27
2022-10-25T08:50:58.743Z,14.29
2022-10-25T08:51:58.730Z,14.32
2022-10-25T08:52:58.750Z,14.37
2022-10-25T08:53:58.711Z,14.37
2022-10-25T08:55:01.741Z,14.37
2022-10-25T08:56:15.649Z,14.32
2022-10-25T08:57:14.543Z,14.31
2022-10-25T08:57:59.710Z,14.32
2022-10-25T08:58:58.641Z,14.38
2022-10-25T08:59:58.781Z,14.49
2022-10-25T09:00:58.662Z,14.57
2022-10-25T09:01:58.801Z,14.68
2022-10-25T09:02:58.600Z,14.72
2022-10-25T09:03:58.597Z,14.68
2022-10-25T09:04:58.607Z,14.68
2022-10-25T09:05:58.608Z,14.69
2022-10-25T09:06:58.602Z,14.80
2022-10-25T09:07:58.554Z,14.87
2022-10-25T09:08:58.543Z,14.80
2022-10-25T09:09:58.527Z,14.80
2022-10-25T09:10:58.505Z,14.84
2022-10-25T09:11:59.299Z,14.88
2022-10-25T09:12:58.524Z,14.91
2022-10-25T09:13:58.484Z,14.91
2022-10-25T09:14:58.554Z,14.99
2022-10-25T09:15:58.453Z,14.98
2022-10-25T09:16:58.444Z,15.05
2022-10-25T09:17:58.471Z,15.08
2022-10-25T09:18:58.418Z,15.02
2022-10-25T09:19:58.397Z,15.13
2022-10-25T09:20:58.446Z,15.17
2022-10-25T09:21:58.375Z,15.24
2022-10-25T09:22:58.366Z,15.24
2022-10-25T09:23:58.376Z,15.30
2022-10-25T09:24:58.355Z,15.28
2022-10-25T09:25:58.329Z,15.27
2022-10-25T09:26:58.317Z,15.24
2022-10-25T09:27:58.326Z,15.12
2022-10-25T09:28:58.298Z,15.06
2022-10-25T09:29:58.278Z,14.95
2022-10-25T09:30:58.286Z,14.91
2022-10-25T09:31:58.279Z,14.83
2022-10-25T09:32:58.295Z,14.84
2022-10-25T09:34:00.139Z,14.91
2022-10-25T09:34:59.228Z,15.01
2022-10-25T09:35:58.252Z,15.08
2022-10-25T09:36:58.208Z,15.11
2022-10-25T09:37:58.181Z,15.20
2022-10-25T09:38:58.242Z,15.24
2022-10-25T09:39:58.178Z,15.28
2022-10-25T09:40:58.151Z,15.30
2022-10-25T09:41:58.131Z,15.30
2022-10-25T09:42:58.181Z,15.38
2022-10-25T09:43:58.170Z,15.36
2022-10-25T09:44:58.134Z,15.38
2022-10-25T09:45:58.103Z,15.42
2022-10-25T09:46:58.073Z,15.46
2022-10-25T09:47:58.093Z,15.52
2022-10-25T09:48:58.042Z,15.56
2022-10-25T09:49:58.084Z,15.60
2022-10-25T09:50:58.053Z,15.64
2022-10-25T09:51:58.053Z,15.67
2022-10-25T09:53:00.786Z,15.78
2022-10-25T09:53:57.993Z,15.81
2022-10-25T09:54:58.002Z,15.84
2022-10-25T09:55:57.998Z,15.85
2022-10-25T09:56:58.003Z,15.92
2022-10-25T09:57:57.942Z,15.92
2022-10-25T09:58:57.953Z,15.94
2022-10-25T09:59:57.914Z,15.94
2022-10-25T10:00:57.904Z,16.00
2022-10-25T10:01:57.981Z,16.03
2022-10-25T10:02:58.033Z,15.99
2022-10-25T10:03:59.269Z,15.97
2022-10-25T10:04:57.883Z,15.97
2022-10-25T10:05:57.845Z,16.00
2022-10-25T10:06:57.863Z,16.00
2022-10-25T10:07:57.826Z,16.04
2022-10-25T10:08:57.816Z,16.06
2022-10-25T10:09:57.798Z,16.09
2022-10-25T10:10:57.828Z,16.07
2022-10-25T10:11:57.835Z,16.04
2022-10-25T10:13:57.749Z,15.97
2022-10-25T10:14:57.740Z,16.04
2022-10-25T10:15:57.728Z,16.11
2022-10-25T10:16:57.732Z,16.18
2022-10-25T10:17:57.736Z,16.25
2022-10-25T10:18:57.730Z,16.31
2022-10-25T10:19:57.697Z,16.31
2022-10-25T10:20:57.821Z,16.37
2022-10-25T10:21:57.649Z,16.35
2022-10-25T10:22:57.669Z,16.37
2022-10-25T10:23:57.670Z,16.42
2022-10-25T10:24:57.626Z,16.44
2022-10-25T10:25:57.617Z,16.40
2022-10-25T10:26:57.598Z,16.40
2022-10-25T10:27:57.619Z,16.34
2022-10-25T10:28:57.570Z,16.27
2022-10-25T10:29:57.603Z,16.27
2022-10-25T10:30:57.551Z,16.31
2022-10-25T10:31:57.581Z,16.40
2022-10-25T10:32:57.760Z,16.35
2022-10-25T10:33:57.512Z,16.31
2022-10-25T10:34:57.512Z,16.42
2022-10-25T10:35:57.504Z,16.44
2022-10-25T10:36:57.495Z,16.56
2022-10-25T10:37:57.465Z,16.63
2022-10-25T10:38:57.552Z,16.68
2022-10-25T10:39:57.452Z,16.70
2022-10-25T10:40:57.508Z,16.70
2022-10-25T10:41:57.425Z,16.78
2022-10-25T10:42:59.148Z,16.81
2022-10-25T10:43:57.404Z,16.81
2022-10-25T10:44:57.405Z,16.89
2022-10-25T10:45:57.381Z,16.77
2022-10-25T10:46:57.394Z,16.74
2022-10-25T10:47:57.361Z,16.67
2022-10-25T10:48:57.378Z,16.58
2022-10-25T10:49:57.326Z,16.63
2022-10-25T10:50:57.327Z,16.62
2022-10-25T10:51:57.306Z,16.53
2022-10-25T10:52:59.658Z,16.56
2022-10-25T10:53:57.327Z,16.62
2022-10-25T10:54:57.288Z,16.53
2022-10-25T10:55:57.277Z,16.50
2022-10-25T10:56:57.260Z,16.40
2022-10-25T10:57:57.290Z,16.26
2022-10-25T10:58:57.219Z,16.18
2022-10-25T10:59:57.227Z,16.15
2022-10-25T11:00:57.301Z,16.25
2022-10-25T11:01:57.248Z,16.34
2022-10-25T11:04:00.477Z,16.55
2022-10-25T11:04:57.158Z,16.63
2022-10-25T11:05:57.207Z,16.67
2022-10-25T11:06:57.149Z,16.71
2022-10-25T11:07:57.157Z,16.78
2022-10-25T11:08:57.119Z,16.78
2022-10-25T11:09:57.143Z,16.81
2022-10-25T11:10:57.113Z,16.93
2022-10-25T11:11:57.079Z,17.04
2022-10-25T11:12:57.190Z,17.14
2022-10-25T11:13:57.129Z,17.11
2022-10-25T11:14:57.165Z,16.99
2022-10-25T11:15:57.138Z,17.00
2022-10-25T11:16:57.985Z,16.96
2022-10-25T11:17:57.135Z,17.08
2022-10-25T11:18:57.084Z,17.18
2022-10-25T11:19:57.045Z,17.18
2022-10-25T11:20:57.074Z,17.30
2022-10-25T11:21:57.032Z,17.40
2022-10-25T11:22:58.849Z,17.36
2022-10-25T11:23:57.074Z,17.36
2022-10-25T11:24:57.025Z,17.29
2022-10-25T11:25:57.065Z,17.22
2022-10-25T11:26:56.904Z,17.08
2022-10-25T11:27:56.894Z,17.03
2022-10-25T11:28:56.878Z,16.96
2022-10-25T11:29:56.885Z,16.89
2022-10-25T11:30:56.866Z,16.80
2022-10-25T11:31:56.873Z,16.74
2022-10-25T11:32:56.835Z,16.77
2022-10-25T11:33:56.826Z,16.75
2022-10-25T11:34:56.816Z,16.75
2022-10-25T11:35:56.816Z,16.73
2022-10-25T11:36:56.801Z,16.71
2022-10-25T11:37:56.820Z,16.71
2022-10-25T11:38:56.768Z,16.77
2022-10-25T11:39:56.752Z,16.81
2022-10-25T11:40:56.738Z,16.88
2022-10-25T11:41:56.766Z,16.90
2022-10-25T11:42:56.718Z,16.89
2022-10-25T11:43:56.738Z,16.95
2022-10-25T11:44:56.694Z,16.95
2022-10-25T11:45:56.728Z,16.95
2022-10-25T11:46:56.687Z,16.92
2022-10-25T11:47:56.775Z,16.99
2022-10-25T11:48:56.719Z,17.11
2022-10-25T11:49:57.186Z,17.20
2022-10-25T11:50:56.652Z,17.20
2022-10-25T11:51:56.609Z,17.20
2022-10-25T11:52:57.282Z,17.11
2022-10-25T11:53:56.611Z,17.15
2022-10-25T11:54:56.651Z,17.14
2022-10-25T11:55:56.578Z,17.06
2022-10-25T11:56:56.557Z,17.03
2022-10-25T11:57:56.542Z,17.04
2022-10-25T11:58:56.531Z,17.13
2022-10-25T11:59:56.519Z,17.17
2022-10-25T12:00:56.550Z,17.11
2022-10-25T12:01:56.500Z,17.10
2022-10-25T12:02:56.531Z,17.22
2022-10-25T12:03:56.473Z,17.32
2022-10-25T12:04:56.503Z,17.28
2022-10-25T12:05:56.469Z,17.23
2022-10-25T12:06:56.483Z,17.28
2022-10-25T12:07:56.444Z,17.29
2022-10-25T12:08:56.427Z,17.26
2022-10-25T12:09:56.428Z,17.29
2022-10-25T12:10:56.393Z,17.25
2022-10-25T12:11:56.406Z,17.26
2022-10-25T12:12:56.406Z,17.23
2022-10-25T12:13:56.375Z,17.18
2022-10-25T12:14:56.353Z,17.14
2022-10-25T12:15:56.336Z,17.15
2022-10-25T12:16:56.340Z,17.13
2022-10-25T12:17:56.341Z,17.07
2022-10-25T12:18:56.297Z,17.00
2022-10-25T12:19:56.310Z,17.00
2022-10-25T12:20:56.292Z,17.04
2022-10-25T12:21:59.206Z,17.08
2022-10-25T12:22:58.519Z,17.10
2022-10-25T12:23:56.249Z,17.11
2022-10-25T12:24:56.235Z,17.15
2022-10-25T12:25:56.217Z,17.25
2022-10-25T12:26:56.208Z,17.20
2022-10-25T12:27:56.831Z,17.20
2022-10-25T12:28:56.424Z,17.23
2022-10-25T12:29:56.288Z,17.29
2022-10-25T12:30:56.186Z,17.28
2022-10-25T12:31:56.167Z,17.28
2022-10-25T12:32:56.160Z,17.25
2022-10-25T12:33:56.239Z,17.28
2022-10-25T12:34:56.189Z,17.30
2022-10-25T12:35:56.169Z,17.43
2022-10-25T12:36:56.156Z,17.47
2022-10-25T12:37:58.128Z,17.43
2022-10-25T12:38:56.212Z,17.47
2022-10-25T12:39:56.132Z,17.53
2022-10-25T12:40:56.102Z,17.57
2022-10-25T12:41:56.052Z,17.53
2022-10-25T12:42:56.132Z,17.55
2022-10-25T12:43:56.012Z,17.66
2022-10-25T12:44:56.160Z,17.67
2022-10-25T12:45:58.395Z,17.78
2022-10-25T12:46:55.987Z,17.85
2022-10-25T12:47:55.986Z,17.87
2022-10-25T12:48:56.032Z,17.82
2022-10-25T12:49:55.944Z,17.79
2022-10-25T12:50:55.954Z,17.84
2022-10-25T12:51:56.047Z,17.84
2022-10-25T12:52:55.939Z,17.74
2022-10-25T12:53:56.015Z,17.74
2022-10-25T12:54:55.964Z,17.76
2022-10-25T12:55:55.947Z,17.78